Time;durP1;ratioP1;P1;durP2;ratioP2;P2;SDS_P1;SDS_P2;PMS_P1;PMS_P2;Temp;Humidity;BMP_temperature;BMP_pressure;BME280_temperature;BME280_humidity;BME280_pressure;Samples;Min_cycle;Max_cycle;Signal;HPM_P1;HPM_P2
2022/05/09 00:00:18;;;;;;;12.32;2.67;;;15.50;66.30;;;;;;6156694;23;20006;-84
2022/05/09 00:02:45;;;;;;;10.07;2.72;;;15.50;66.50;;;;;;6154806;23;20009;-84
2022/05/09 00:05:15;;;;;;;9.65;2.45;;;15.40;66.60;;;;;;6154661;23;20001;-83
2022/05/09 00:07:41;;;;;;;9.13;3.03;;;15.40;66.80;;;;;;6154779;23;20005;-84
2022/05/09 00:10:08;;;;;;;10.73;2.50;;;15.40;67.00;;;;;;6154402;23;20009;-84
2022/05/09 00:12:34;;;;;;;9.07;2.15;;;15.30;67.00;;;;;;6156084;23;20002;-84
2022/05/09 00:15:00;;;;;;;10.82;2.45;;;15.30;67.20;;;;;;6156043;23;20080;-84
2022/05/09 00:17:25;;;;;;;9.27;2.55;;;15.30;67.40;;;;;;6154255;23;20010;-84
2022/05/09 00:19:51;;;;;;;8.00;3.22;;;15.30;67.60;;;;;;6154170;23;20014;-85
2022/05/09 00:22:17;;;;;;;15.77;3.03;;;15.20;67.70;;;;;;6155043;23;20306;-84
2022/05/09 00:24:42;;;;;;;11.90;3.10;;;15.20;67.80;;;;;;6155836;23;20069;-84
2022/05/09 00:27:08;;;;;;;12.80;2.95;;;15.20;67.90;;;;;;6129828;23;20017;-84
2022/05/09 00:29:34;;;;;;;8.30;2.35;;;15.10;68.00;;;;;;6154406;23;20013;-83
2022/05/09 00:32:00;;;;;;;14.73;2.92;;;15.10;68.10;;;;;;6154330;23;20080;-84
2022/05/09 00:34:25;;;;;;;9.20;2.65;;;15.00;68.10;;;;;;6156090;23;20002;-84
2022/05/09 00:36:52;;;;;;;11.15;3.05;;;15.00;68.10;;;;;;6154316;23;20002;-85
2022/05/09 00:39:19;;;;;;;15.43;3.42;;;15.00;68.30;;;;;;6155804;23;20006;-84
2022/05/09 00:41:45;;;;;;;15.95;2.92;;;14.90;68.40;;;;;;6156016;23;20462;-84
2022/05/09 00:44:14;;;;;;;13.10;2.83;;;14.90;68.60;;;;;;6154094;23;20049;-84
2022/05/09 00:46:42;;;;;;;11.05;2.35;;;14.80;68.80;;;;;;6154508;23;20332;-84
2022/05/09 00:49:17;;;;;;;13.20;3.25;;;14.80;69.10;;;;;;6154082;23;20084;-84
2022/05/09 00:51:50;;;;;;;10.35;2.85;;;14.80;69.10;;;;;;6156052;23;20088;-84
2022/05/09 00:54:16;;;;;;;9.95;2.70;;;14.80;69.30;;;;;;6155829;23;20005;-84
2022/05/09 00:56:55;;;;;;;6.72;2.30;;;14.70;69.40;;;;;;6129815;23;20006;-84
2022/05/09 00:59:21;;;;;;;10.18;3.00;;;14.70;69.40;;;;;;6155997;23;20432;-84
2022/05/09 01:01:48;;;;;;;11.55;3.00;;;14.70;69.50;;;;;;6154226;23;20005;-84
2022/05/09 01:04:18;;;;;;;12.68;2.70;;;14.60;69.50;;;;;;6154070;23;20104;-84
2022/05/09 01:06:43;;;;;;;13.50;3.08;;;14.60;69.90;;;;;;6154326;23;20010;-84
2022/05/09 01:09:12;;;;;;;10.57;3.72;;;14.60;70.00;;;;;;6155482;23;20022;-84
2022/05/09 01:11:42;;;;;;;11.13;2.33;;;14.50;70.00;;;;;;6130671;23;20002;-84
2022/05/09 01:14:13;;;;;;;11.80;2.77;;;14.50;70.40;;;;;;6154132;23;20005;-84
2022/05/09 01:16:39;;;;;;;12.50;2.85;;;14.50;70.50;;;;;;6154636;23;20048;-84
2022/05/09 01:19:25;;;;;;;12.60;3.05;;;14.50;70.60;;;;;;6153741;23;20440;-84
2022/05/09 01:21:52;;;;;;;12.82;2.90;;;14.40;70.80;;;;;;6140892;23;20022;-84
2022/05/09 01:24:23;;;;;;;13.55;2.80;;;14.40;70.80;;;;;;6154257;23;20089;-84
2022/05/09 01:26:49;;;;;;;13.77;2.90;;;14.40;71.00;;;;;;6154622;23;20077;-84
2022/05/09 01:29:31;;;;;;;9.80;2.83;;;14.30;71.20;;;;;;6155718;23;20014;-84
2022/05/09 01:31:58;;;;;;;11.95;2.83;;;14.30;71.30;;;;;;6155890;23;20005;-90
2022/05/09 01:34:23;;;;;;;13.05;2.85;;;14.30;71.30;;;;;;6154810;23;20050;-84
2022/05/09 01:36:55;;;;;;;12.77;3.15;;;14.30;71.40;;;;;;6154373;23;20017;-85
2022/05/09 01:39:23;;;;;;;11.60;3.10;;;14.20;71.20;;;;;;6154185;23;20064;-82
2022/05/09 01:41:49;;;;;;;12.40;3.28;;;14.20;71.30;;;;;;6154461;23;20001;-83
2022/05/09 01:44:15;;;;;;;9.35;2.97;;;14.10;71.50;;;;;;6154267;23;20028;-84
2022/05/09 01:49:31;;;;;;;11.98;2.92;;;14.10;72.30;;;;;;6155829;23;20072;-84
2022/05/09 01:52:05;;;;;;;14.38;3.28;;;14.10;71.90;;;;;;6155103;23;20001;-84
2022/05/09 01:54:32;;;;;;;9.95;3.13;;;14.00;71.90;;;;;;6132701;23;20043;-84
2022/05/09 01:56:57;;;;;;;11.35;3.10;;;14.00;72.00;;;;;;6131602;23;20012;-84
2022/05/09 01:59:24;;;;;;;14.18;3.60;;;14.00;72.20;;;;;;6131461;23;20092;-84
2022/05/09 02:01:54;;;;;;;11.23;3.35;;;13.90;72.30;;;;;;6156113;23;20087;-84
2022/05/09 02:04:19;;;;;;;8.48;3.17;;;13.90;72.30;;;;;;6156097;23;20002;-84
2022/05/09 02:06:46;;;;;;;13.82;3.40;;;13.90;72.40;;;;;;6131318;23;20013;-84
2022/05/09 02:09:12;;;;;;;14.27;3.60;;;13.90;72.50;;;;;;6156033;23;20013;-85
2022/05/09 02:11:38;;;;;;;12.90;3.85;;;13.90;72.40;;;;;;6157413;23;20344;-84
2022/05/09 02:14:04;;;;;;;12.73;3.00;;;13.80;72.70;;;;;;6155989;23;20013;-84
2022/05/09 02:16:30;;;;;;;9.88;3.28;;;13.80;72.90;;;;;;6158039;23;20033;-84
2022/05/09 02:18:55;;;;;;;11.95;3.08;;;13.70;73.20;;;;;;6131508;23;20006;-84
2022/05/09 02:21:21;;;;;;;11.82;3.00;;;13.70;73.30;;;;;;6157848;23;20671;-84
2022/05/09 02:23:47;;;;;;;13.73;3.17;;;13.70;73.50;;;;;;6131369;23;20010;-84
2022/05/09 02:26:13;;;;;;;9.63;3.03;;;13.70;73.60;;;;;;6131272;23;20001;-85
2022/05/09 02:28:38;;;;;;;11.50;2.95;;;13.70;73.90;;;;;;6131174;23;20009;-84
2022/05/09 02:31:04;;;;;;;17.92;3.13;;;13.60;74.00;;;;;;6131656;23;20033;-85
2022/05/09 02:33:30;;;;;;;15.20;3.03;;;13.60;74.10;;;;;;6106935;23;20428;-84
2022/05/09 02:35:56;;;;;;;8.30;3.20;;;13.60;74.20;;;;;;6157237;23;20005;-84
2022/05/09 02:38:24;;;;;;;10.07;3.15;;;13.60;74.20;;;;;;6131101;23;20380;-84
2022/05/09 02:40:51;;;;;;;13.23;3.08;;;13.50;74.30;;;;;;6107788;23;20084;-84
2022/05/09 02:43:17;;;;;;;13.65;3.78;;;13.50;74.30;;;;;;6157759;23;20006;-84
2022/05/09 02:45:43;;;;;;;9.40;3.22;;;13.50;74.40;;;;;;6131724;23;20006;-84
2022/05/09 02:48:10;;;;;;;12.35;4.13;;;13.50;74.40;;;;;;6131105;23;20446;-85
2022/05/09 02:50:36;;;;;;;12.40;3.22;;;13.40;74.40;;;;;;6106871;23;20432;-84
2022/05/09 02:53:03;;;;;;;12.93;3.60;;;13.40;74.40;;;;;;6131089;23;20096;-84
2022/05/09 02:55:31;;;;;;;15.27;4.32;;;13.30;74.40;;;;;;6156732;23;20122;-84
2022/05/09 02:57:57;;;;;;;14.25;3.72;;;13.30;74.60;;;;;;6131132;23;20305;-84
2022/05/09 03:00:26;;;;;;;9.35;3.20;;;13.30;74.80;;;;;;6130882;23;20079;-84
2022/05/09 03:05:39;;;;;;;10.63;3.78;;;13.20;75.20;;;;;;6156853;23;20041;-84
2022/05/09 03:08:06;;;;;;;9.70;3.25;;;13.20;75.40;;;;;;6156734;23;20440;-84
2022/05/09 03:10:32;;;;;;;12.63;3.90;;;13.20;75.70;;;;;;6106766;23;20009;-84
2022/05/09 03:12:59;;;;;;;13.50;3.97;;;13.10;75.60;;;;;;6106464;23;20006;-84
2022/05/09 03:15:33;;;;;;;15.57;3.78;;;13.10;75.80;;;;;;6130922;23;19998;-84
2022/05/09 03:17:58;;;;;;;12.15;3.55;;;13.10;75.70;;;;;;6131104;23;19998;-84
2022/05/09 03:20:25;;;;;;;10.80;3.83;;;13.10;75.70;;;;;;6136951;23;20104;-84
2022/05/09 03:22:51;;;;;;;10.80;3.75;;;13.00;75.80;;;;;;6155465;23;20002;-84
2022/05/09 03:25:17;;;;;;;8.75;3.30;;;13.00;76.00;;;;;;6157521;23;20012;-84
2022/05/09 03:27:43;;;;;;;14.07;3.90;;;13.00;76.10;;;;;;6155585;23;20005;-84
2022/05/09 03:30:10;;;;;;;12.95;4.35;;;12.90;76.20;;;;;;6155433;23;20077;-84
2022/05/09 03:32:36;;;;;;;11.35;3.67;;;12.90;76.50;;;;;;6155361;23;20084;-84
2022/05/09 03:35:06;;;;;;;14.27;4.47;;;12.90;76.60;;;;;;6157126;23;20412;-84
2022/05/09 03:37:32;;;;;;;13.73;4.40;;;12.90;76.80;;;;;;6157402;23;20060;-84
2022/05/09 03:39:57;;;;;;;14.85;4.53;;;12.80;76.80;;;;;;6156784;23;20006;-84
2022/05/09 03:42:23;;;;;;;9.43;3.58;;;12.80;77.00;;;;;;6157965;23;20002;-84
2022/05/09 03:44:49;;;;;;;12.40;4.28;;;12.80;77.20;;;;;;6157937;23;20001;-84
2022/05/09 03:47:15;;;;;;;13.15;4.60;;;12.80;77.40;;;;;;6132860;23;20009;-84
2022/05/09 03:49:41;;;;;;;12.23;3.83;;;12.80;77.60;;;;;;6157037;23;20479;-84
2022/05/09 03:52:07;;;;;;;11.98;4.10;;;12.70;77.70;;;;;;6172208;23;20005;-84
2022/05/09 03:54:33;;;;;;;15.75;4.13;;;12.70;77.90;;;;;;6179971;23;20025;-84
2022/05/09 03:56:58;;;;;;;12.68;4.45;;;12.70;78.00;;;;;;6156412;23;20006;-84
2022/05/09 03:59:24;;;;;;;13.98;3.40;;;12.70;78.00;;;;;;6181632;23;20471;-85
2022/05/09 04:01:50;;;;;;;10.32;3.75;;;12.70;78.20;;;;;;6180137;23;20002;-85
2022/05/09 04:04:16;;;;;;;10.38;3.53;;;12.60;78.20;;;;;;6153627;23;19990;-91
2022/05/09 04:06:42;;;;;;;9.32;3.80;;;12.60;78.20;;;;;;6174275;23;20024;-84
2022/05/09 04:09:08;;;;;;;10.57;4.07;;;12.50;78.30;;;;;;6167492;23;20021;-84
2022/05/09 04:11:33;;;;;;;14.80;4.25;;;12.60;78.50;;;;;;6158248;23;20005;-84
2022/05/09 04:13:59;;;;;;;16.25;3.92;;;12.50;78.60;;;;;;6154783;23;20029;-84
2022/05/09 04:19:09;;;;;;;10.13;4.00;;;12.50;78.90;;;;;;6155208;23;20033;-84
2022/05/09 04:21:34;;;;;;;16.20;4.68;;;12.40;79.00;;;;;;6154492;23;20022;-84
2022/05/09 04:24:02;;;;;;;13.55;4.13;;;12.40;79.10;;;;;;6155066;23;20331;-84
2022/05/09 04:26:31;;;;;;;14.90;3.88;;;12.40;79.40;;;;;;6154805;23;20009;-84
2022/05/09 04:28:57;;;;;;;16.45;3.88;;;12.40;79.60;;;;;;6156405;23;20420;-83
2022/05/09 04:31:23;;;;;;;14.07;3.95;;;12.40;79.80;;;;;;6154259;23;20129;-83
2022/05/09 04:33:49;;;;;;;13.27;4.30;;;12.30;79.70;;;;;;6130297;23;20002;-84
2022/05/09 04:36:16;;;;;;;13.30;3.60;;;12.30;79.80;;;;;;6154756;23;20060;-84
2022/05/09 04:38:43;;;;;;;15.13;4.00;;;12.30;79.90;;;;;;6154661;23;20019;-83
2022/05/09 04:41:10;;;;;;;10.90;3.50;;;12.30;80.10;;;;;;6156517;23;20001;-83
2022/05/09 04:43:37;;;;;;;12.15;3.65;;;12.30;80.10;;;;;;6154604;23;20009;-83
2022/05/09 04:46:04;;;;;;;13.48;3.75;;;12.30;80.30;;;;;;6130280;23;20017;-83
2022/05/09 04:48:31;;;;;;;12.13;3.80;;;12.20;80.30;;;;;;6154218;23;20014;-84
2022/05/09 04:50:57;;;;;;;12.18;4.03;;;12.20;80.30;;;;;;6154778;23;20033;-84
2022/05/09 04:53:24;;;;;;;12.40;3.53;;;12.20;80.50;;;;;;6129660;23;20028;-84
2022/05/09 04:55:50;;;;;;;14.50;3.83;;;12.20;80.70;;;;;;6156117;23;20005;-84
2022/05/09 04:58:20;;;;;;;11.63;3.70;;;12.10;80.80;;;;;;6154885;23;20001;-83
2022/05/09 05:00:46;;;;;;;12.30;3.90;;;12.20;80.90;;;;;;6154774;23;20033;-83
2022/05/09 05:03:13;;;;;;;10.73;3.90;;;12.10;80.80;;;;;;6156085;23;20004;-84
2022/05/09 05:05:40;;;;;;;11.88;3.75;;;12.10;81.00;;;;;;6155667;23;20429;-84
2022/05/09 05:08:06;;;;;;;13.57;3.75;;;12.10;81.20;;;;;;6154843;23;20006;-86
2022/05/09 05:10:32;;;;;;;19.40;4.20;;;12.10;81.30;;;;;;6155874;23;20352;-84
2022/05/09 05:12:59;;;;;;;14.48;3.97;;;12.10;81.60;;;;;;6154762;23;20086;-84
2022/05/09 05:15:28;;;;;;;9.35;3.60;;;12.00;81.80;;;;;;6154366;23;20013;-84
2022/05/09 05:17:53;;;;;;;13.80;3.72;;;12.00;82.00;;;;;;6154686;23;20029;-84
2022/05/09 05:20:19;;;;;;;12.90;3.90;;;12.00;82.20;;;;;;6130989;23;20024;-83
2022/05/09 05:22:49;;;;;;;13.02;4.07;;;12.00;82.50;;;;;;6162448;23;20392;-84
2022/05/09 05:25:21;;;;;;;10.75;3.65;;;12.00;82.80;;;;;;6154632;23;20321;-85
2022/05/09 05:27:47;;;;;;;12.05;4.10;;;12.00;83.00;;;;;;6156324;23;20101;-84
2022/05/09 05:30:13;;;;;;;10.18;3.53;;;12.00;83.20;;;;;;6156676;23;20084;-84
2022/05/09 05:32:41;;;;;;;12.13;4.18;;;12.10;83.50;;;;;;6157347;23;20428;-84
2022/05/09 05:35:11;;;;;;;11.63;4.07;;;12.00;83.70;;;;;;6155795;23;20109;-84
2022/05/09 05:37:36;;;;;;;15.35;3.95;;;12.00;84.00;;;;;;6157650;23;20004;-85
2022/05/09 05:40:02;;;;;;;13.52;4.15;;;12.10;84.10;;;;;;6131897;23;20013;-84
2022/05/09 05:42:29;;;;;;;9.57;3.22;;;12.10;84.20;;;;;;6156063;23;20306;-84
2022/05/09 05:44:54;;;;;;;15.15;4.47;;;12.10;84.30;;;;;;6156358;23;20002;-84
2022/05/09 05:47:22;;;;;;;11.10;3.60;;;12.10;84.40;;;;;;6155620;23;20072;-84
2022/05/09 05:49:49;;;;;;;12.65;4.20;;;12.10;84.60;;;;;;6156016;23;20033;-84
2022/05/09 05:52:16;;;;;;;9.52;4.07;;;12.20;84.80;;;;;;6155363;23;20125;-83
2022/05/09 05:54:43;;;;;;;14.32;4.18;;;12.20;85.00;;;;;;6131642;23;20010;-84
2022/05/09 05:57:20;;;;;;;10.55;3.90;;;12.20;85.10;;;;;;6131049;23;20017;-84
2022/05/09 05:59:50;;;;;;;13.68;3.80;;;12.20;85.30;;;;;;6155608;23;20084;-85
2022/05/09 06:02:16;;;;;;;10.20;3.93;;;12.20;85.50;;;;;;6155077;23;20089;-84
2022/05/09 06:04:41;;;;;;;13.65;4.57;;;12.20;85.60;;;;;;6131460;23;20029;-84
2022/05/09 06:07:07;;;;;;;11.32;3.70;;;12.20;85.40;;;;;;6156458;23;20305;-84
2022/05/09 06:09:32;;;;;;;17.98;4.57;;;12.30;85.40;;;;;;6155939;23;20368;-84
2022/05/09 06:12:01;;;;;;;13.07;4.25;;;12.30;85.40;;;;;;6157323;23;20017;-84
2022/05/09 06:14:26;;;;;;;15.10;3.90;;;12.30;85.40;;;;;;6156075;23;20010;-84
2022/05/09 06:16:52;;;;;;;9.77;3.45;;;12.30;85.60;;;;;;6131320;23;20451;-84
2022/05/09 06:19:18;;;;;;;14.82;3.88;;;12.40;85.70;;;;;;6155890;23;20018;-85
2022/05/09 06:21:43;;;;;;;10.07;3.88;;;12.40;85.80;;;;;;6155583;23;20030;-84
2022/05/09 06:24:09;;;;;;;8.13;3.50;;;12.40;85.80;;;;;;6155808;23;20025;-84
2022/05/09 06:26:35;;;;;;;11.43;3.58;;;12.40;86.00;;;;;;6131326;23;20002;-84
2022/05/09 06:29:06;;;;;;;12.52;3.85;;;12.50;86.00;;;;;;6131335;23;20429;-84
2022/05/09 06:31:32;;;;;;;11.95;3.83;;;12.50;86.00;;;;;;6132334;23;20088;-84
2022/05/09 06:33:58;;;;;;;13.40;3.47;;;12.50;86.10;;;;;;6156051;23;20008;-84
2022/05/09 06:36:23;;;;;;;15.75;4.18;;;12.50;86.00;;;;;;6155943;23;20005;-84
2022/05/09 06:38:49;;;;;;;11.43;3.60;;;12.60;86.20;;;;;;6130842;23;20333;-84
2022/05/09 06:41:15;;;;;;;13.65;4.15;;;12.60;86.50;;;;;;6155938;23;20026;-84
2022/05/09 06:43:42;;;;;;;11.88;4.10;;;12.70;86.50;;;;;;6130678;23;20020;-84
2022/05/09 06:46:10;;;;;;;13.48;4.75;;;12.70;86.50;;;;;;6131003;23;20005;-84
2022/05/09 06:48:36;;;;;;;9.95;4.00;;;12.70;86.80;;;;;;6155516;23;20001;-85
2022/05/09 06:51:01;;;;;;;12.68;4.03;;;12.80;87.30;;;;;;6131670;23;20017;-84
2022/05/09 06:53:27;;;;;;;12.85;3.80;;;12.90;87.90;;;;;;6131055;23;20021;-83
2022/05/09 06:55:52;;;;;;;10.88;3.92;;;12.90;88.50;;;;;;6130056;23;20044;-83
2022/05/09 06:58:21;;;;;;;13.40;4.65;;;13.00;88.00;;;;;;6155710;23;20001;-84
2022/05/09 07:00:47;;;;;;;11.55;4.43;;;13.10;88.50;;;;;;6155776;23;20124;-83
2022/05/09 07:03:13;;;;;;;11.27;3.58;;;13.10;88.10;;;;;;6155884;23;20096;-83
2022/05/09 07:05:43;;;;;;;12.10;3.78;;;13.20;87.50;;;;;;6157332;23;20036;-83
2022/05/09 07:08:09;;;;;;;11.13;3.58;;;13.30;87.30;;;;;;6156177;23;20045;-84
2022/05/09 07:10:36;;;;;;;12.65;3.47;;;13.30;87.50;;;;;;6131673;23;20368;-85
2022/05/09 07:13:04;;;;;;;14.00;3.58;;;13.40;87.50;;;;;;6131619;23;20006;-84
2022/05/09 07:15:31;;;;;;;12.20;4.45;;;13.50;87.60;;;;;;6156327;23;19998;-83
2022/05/09 07:18:01;;;;;;;11.93;5.20;;;13.50;87.50;;;;;;6131530;23;20016;-83
2022/05/09 07:20:30;;;;;;;15.98;3.83;;;13.60;87.60;;;;;;6156453;23;20017;-84
2022/05/09 07:23:01;;;;;;;13.60;4.35;;;13.70;87.40;;;;;;6158654;23;20029;-84
2022/05/09 07:25:27;;;;;;;14.20;4.90;;;13.80;87.60;;;;;;6157263;23;20008;-84
2022/05/09 07:27:53;;;;;;;14.00;3.83;;;13.90;87.60;;;;;;6131045;23;20112;-83
2022/05/09 07:30:21;;;;;;;10.52;3.78;;;14.00;87.60;;;;;;6155692;23;20065;-83
2022/05/09 07:32:47;;;;;;;10.02;3.80;;;14.10;87.80;;;;;;6155714;23;20096;-83
2022/05/09 07:35:15;;;;;;;12.65;3.95;;;14.10;87.30;;;;;;6156056;23;20006;-83
2022/05/09 07:37:41;;;;;;;15.10;4.13;;;14.20;86.90;;;;;;6155532;23;20009;-83
2022/05/09 07:40:12;;;;;;;14.88;4.40;;;14.30;86.30;;;;;;6155840;23;20005;-84
2022/05/09 07:42:42;;;;;;;12.02;4.13;;;14.40;86.40;;;;;;6131525;23;20412;-83
2022/05/09 07:45:09;;;;;;;10.55;4.53;;;14.50;86.30;;;;;;6131998;23;20038;-84
2022/05/09 07:47:34;;;;;;;12.85;4.15;;;14.60;86.30;;;;;;6130963;23;20313;-83
2022/05/09 07:50:01;;;;;;;11.93;4.22;;;14.70;86.00;;;;;;6154692;23;20344;-83
2022/05/09 07:52:26;;;;;;;17.75;4.65;;;14.80;86.20;;;;;;6131065;23;20005;-84
2022/05/09 07:54:52;;;;;;;11.55;4.18;;;14.90;86.50;;;;;;6156926;23;20008;-84
2022/05/09 07:57:18;;;;;;;12.70;4.65;;;15.00;86.50;;;;;;6155720;23;20037;-84
2022/05/09 07:59:43;;;;;;;10.95;4.72;;;15.10;86.50;;;;;;6130724;23;20084;-84
2022/05/09 08:02:09;;;;;;;16.02;4.32;;;15.20;86.00;;;;;;6131281;23;20012;-83
2022/05/09 08:04:35;;;;;;;13.43;3.92;;;15.30;85.60;;;;;;6155240;23;20440;-84
2022/05/09 08:07:04;;;;;;;10.23;4.28;;;15.40;85.60;;;;;;6130817;23;20089;-85
2022/05/09 08:09:30;;;;;;;10.55;4.05;;;15.50;85.60;;;;;;6131567;23;20021;-84
2022/05/09 08:11:58;;;;;;;11.15;4.38;;;15.50;85.40;;;;;;6155454;23;20371;-84
2022/05/09 08:14:24;;;;;;;11.75;4.30;;;15.70;85.30;;;;;;6155275;23;20005;-84
2022/05/09 08:16:50;;;;;;;11.52;4.13;;;15.70;85.10;;;;;;6154679;23;20004;-84
2022/05/09 08:19:15;;;;;;;10.40;4.18;;;15.90;85.10;;;;;;6155074;23;20010;-84
2022/05/09 08:21:41;;;;;;;10.13;3.45;;;16.00;84.80;;;;;;6154579;23;20037;-85
2022/05/09 08:24:08;;;;;;;11.23;4.07;;;16.00;84.40;;;;;;6154902;23;20001;-84
2022/05/09 08:26:34;;;;;;;11.57;4.18;;;16.10;84.20;;;;;;6156365;23;20016;-84
2022/05/09 08:29:00;;;;;;;13.25;3.67;;;16.30;84.40;;;;;;6156427;23;20364;-84
2022/05/09 08:31:26;;;;;;;9.23;3.60;;;16.30;84.60;;;;;;6155762;23;20013;-84
2022/05/09 08:33:53;;;;;;;12.00;4.97;;;16.40;84.50;;;;;;6168610;23;19981;-84
2022/05/09 08:39:08;;;;;;;8.88;4.38;;;16.60;83.20;;;;;;6169952;23;20020;-84
2022/05/09 08:41:56;;;;;;;10.82;3.95;;;16.70;82.10;;;;;;6155042;23;20045;-84
2022/05/09 08:44:43;;;;;;;12.45;4.70;;;16.80;81.40;;;;;;6156487;23;20087;-84
2022/05/09 08:47:28;;;;;;;9.45;3.85;;;16.90;81.30;;;;;;6154902;23;20024;-84
2022/05/09 08:50:24;;;;;;;10.20;3.63;;;17.00;80.90;;;;;;6156360;23;20006;-84
2022/05/09 08:53:02;;;;;;;9.88;3.70;;;17.10;80.10;;;;;;6154583;23;20041;-84
2022/05/09 08:55:36;;;;;;;10.63;3.92;;;17.20;78.70;;;;;;6155086;23;20001;-84
2022/05/09 08:58:22;;;;;;;10.65;3.35;;;17.20;77.90;;;;;;6155954;23;20005;-83
2022/05/09 09:00:49;;;;;;;10.98;4.55;;;17.30;78.10;;;;;;6153960;23;20008;-83
2022/05/09 09:03:24;;;;;;;8.25;3.45;;;17.40;77.50;;;;;;6155021;23;20009;-83
2022/05/09 09:05:53;;;;;;;9.65;3.90;;;17.50;76.90;;;;;;6157168;23;20005;-84
2022/05/09 09:08:28;;;;;;;7.32;3.22;;;17.60;76.80;;;;;;6154964;23;20415;-83
2022/05/09 09:11:12;;;;;;;11.13;3.83;;;17.70;77.10;;;;;;6155765;23;20016;-84
2022/05/09 09:13:48;;;;;;;9.57;3.65;;;17.80;77.70;;;;;;6155159;23;20001;-84
2022/05/09 09:16:23;;;;;;;7.60;2.92;;;17.90;78.30;;;;;;6157213;23;20001;-85
2022/05/09 09:19:07;;;;;;;8.52;3.20;;;18.00;79.40;;;;;;6157276;23;20002;-85
2022/05/09 09:22:03;;;;;;;7.05;2.53;;;18.10;80.20;;;;;;6154934;23;20339;-84
2022/05/09 09:25:01;;;;;;;7.22;2.63;;;18.20;80.00;;;;;;6155458;23;20002;-84
2022/05/09 09:27:41;;;;;;;7.00;2.72;;;18.20;79.50;;;;;;6156446;23;19998;-84
2022/05/09 09:30:13;;;;;;;6.03;2.45;;;18.30;79.40;;;;;;6155850;23;20009;-85
2022/05/09 09:32:43;;;;;;;8.00;2.33;;;18.40;79.40;;;;;;6156801;23;20010;-84
2022/05/09 09:35:24;;;;;;;5.40;2.25;;;18.50;78.70;;;;;;6156796;23;20005;-85
2022/05/09 09:38:02;;;;;;;5.38;2.13;;;18.60;77.90;;;;;;6155089;23;20416;-86
2022/05/09 09:40:28;;;;;;;5.47;2.00;;;18.60;77.80;;;;;;6156935;23;20001;-84
2022/05/09 09:42:55;;;;;;;7.57;2.30;;;18.70;77.30;;;;;;6130221;23;20088;-85
2022/05/09 09:45:49;;;;;;;4.22;1.88;;;18.80;76.50;;;;;;6155026;23;20010;-85
2022/05/09 09:48:22;;;;;;;5.95;1.95;;;18.90;75.70;;;;;;6154962;23;19998;-84
2022/05/09 09:51:03;;;;;;;5.88;2.00;;;18.90;75.20;;;;;;6156414;23;20028;-84
2022/05/09 09:53:38;;;;;;;7.53;2.53;;;19.00;75.40;;;;;;6154974;23;19998;-84
2022/05/09 09:56:27;;;;;;;7.45;2.67;;;19.10;75.50;;;;;;6154660;23;20052;-85
2022/05/09 09:59:09;;;;;;;6.35;2.05;;;19.10;74.80;;;;;;6154343;23;20006;-85
2022/05/09 10:01:35;;;;;;;5.40;1.92;;;19.20;74.70;;;;;;6154643;23;20033;-84
2022/05/09 10:04:25;;;;;;;9.93;2.58;;;19.30;74.40;;;;;;6155831;23;20012;-85
2022/05/09 10:07:05;;;;;;;9.93;2.80;;;19.40;72.60;;;;;;6156181;23;20001;-85
2022/05/09 10:10:10;;;;;;;9.43;2.95;;;19.50;69.90;;;;;;6154400;23;20016;-85
2022/05/09 10:12:37;;;;;;;8.73;2.85;;;19.50;67.30;;;;;;6151839;23;20013;-84
2022/05/09 10:15:23;;;;;;;8.95;2.72;;;19.60;67.70;;;;;;6131815;23;20137;-84
2022/05/09 10:17:50;;;;;;;6.35;2.30;;;19.60;67.70;;;;;;6157772;23;20002;-84
2022/05/09 10:20:32;;;;;;;6.47;2.40;;;19.60;67.60;;;;;;6130981;23;20025;-84
2022/05/09 10:26:28;;;;;;;7.00;2.25;;;19.80;69.10;;;;;;6156975;23;20032;-85
2022/05/09 10:29:13;;;;;;;7.95;2.58;;;19.90;68.80;;;;;;6157346;23;20009;-88
2022/05/09 10:31:49;;;;;;;7.85;2.40;;;20.00;67.30;;;;;;6156002;23;20012;-84
2022/05/09 10:34:27;;;;;;;8.75;3.33;;;20.00;66.70;;;;;;6156540;23;20056;-84
2022/05/09 10:37:14;;;;;;;6.20;1.88;;;20.10;66.10;;;;;;6159035;23;20057;-85
2022/05/09 10:39:59;;;;;;;8.95;2.80;;;20.20;65.80;;;;;;6158059;23;20006;-85
2022/05/09 10:42:41;;;;;;;6.75;2.15;;;20.20;65.00;;;;;;6158049;23;20032;-83
2022/05/09 10:45:15;;;;;;;5.78;2.40;;;20.30;65.10;;;;;;6157673;23;20001;-84
2022/05/09 10:48:16;;;;;;;5.80;2.63;;;20.30;64.70;;;;;;6157600;23;20005;-83
2022/05/09 10:51:14;;;;;;;7.35;2.13;;;20.40;64.20;;;;;;6142050;23;20041;-83
2022/05/09 10:54:06;;;;;;;6.95;1.90;;;20.50;64.00;;;;;;6155889;23;20012;-83
2022/05/09 10:56:38;;;;;;;5.18;1.90;;;20.50;64.70;;;;;;6156281;23;20010;-84
2022/05/09 10:59:08;;;;;;;5.40;2.05;;;20.60;64.80;;;;;;6159280;23;20423;-83
2022/05/09 11:01:47;;;;;;;7.95;2.90;;;20.70;64.80;;;;;;6156994;23;20005;-84
2022/05/09 11:04:14;;;;;;;6.78;2.20;;;20.70;64.20;;;;;;6155705;23;19997;-83
2022/05/09 11:07:04;;;;;;;6.38;2.13;;;20.80;63.80;;;;;;6132162;23;20028;-86
2022/05/09 11:09:36;;;;;;;9.90;2.73;;;20.90;63.10;;;;;;6156390;23;20017;-85
2022/05/09 11:12:39;;;;;;;6.53;2.78;;;21.00;62.70;;;;;;6156196;23;20060;-86
2022/05/09 11:15:27;;;;;;;4.78;2.15;;;21.10;62.10;;;;;;6156052;23;20029;-86
2022/05/09 11:18:30;;;;;;;5.22;2.30;;;21.20;63.30;;;;;;6156028;23;20008;-85
2022/05/09 11:21:14;;;;;;;7.82;2.45;;;21.20;63.20;;;;;;6155904;23;20013;-85
2022/05/09 11:24:04;;;;;;;6.10;2.30;;;21.30;63.00;;;;;;6157806;23;20008;-85
2022/05/09 11:26:47;;;;;;;7.72;2.33;;;21.30;62.90;;;;;;6157257;23;19997;-85
2022/05/09 11:29:18;;;;;;;7.82;2.28;;;21.40;63.30;;;;;;6156780;23;20028;-85
2022/05/09 11:32:16;;;;;;;8.48;2.75;;;21.50;63.60;;;;;;6157411;23;20320;-85
2022/05/09 11:34:48;;;;;;;4.97;2.28;;;21.50;62.90;;;;;;6155495;23;20092;-85
2022/05/09 11:37:47;;;;;;;9.05;2.28;;;21.60;62.50;;;;;;6154789;23;20396;-86
2022/05/09 11:40:21;;;;;;;5.35;1.90;;;21.70;62.70;;;;;;6155505;23;20056;-86
2022/05/09 11:46:01;;;;;;;7.40;2.50;;;21.90;62.00;;;;;;6157824;23;20040;-86
2022/05/09 11:48:30;;;;;;;6.82;2.80;;;22.00;61.90;;;;;;6155938;23;20002;-85
2022/05/09 11:51:14;;;;;;;9.38;2.80;;;22.00;60.50;;;;;;6157013;23;20005;-85
2022/05/09 11:53:44;;;;;;;7.05;2.70;;;22.10;59.80;;;;;;6158643;23;20006;-85
2022/05/09 11:56:10;;;;;;;7.15;2.40;;;22.20;59.80;;;;;;6157528;23;20001;-85
2022/05/09 11:58:39;;;;;;;8.70;2.83;;;22.20;59.60;;;;;;6158214;23;20492;-85
2022/05/09 12:01:05;;;;;;;6.28;2.60;;;22.30;59.30;;;;;;6156617;23;20032;-86
2022/05/09 12:03:40;;;;;;;7.75;2.50;;;22.40;59.20;;;;;;6132394;23;20459;-85
2022/05/09 12:06:12;;;;;;;9.50;2.55;;;22.40;59.30;;;;;;6156520;23;20028;-87
2022/05/09 12:08:46;;;;;;;7.32;2.50;;;22.50;59.30;;;;;;6159268;23;20056;-85
2022/05/09 12:11:18;;;;;;;8.10;2.60;;;22.60;59.80;;;;;;6158483;23;20006;-85
2022/05/09 12:13:43;;;;;;;8.18;2.85;;;22.70;59.50;;;;;;6158180;23;20036;-85
2022/05/09 12:16:30;;;;;;;9.65;2.97;;;22.80;58.70;;;;;;6156609;23;20044;-85
2022/05/09 12:19:00;;;;;;;8.93;2.83;;;22.80;58.30;;;;;;6157730;23;20009;-84
2022/05/09 12:21:37;;;;;;;6.43;2.27;;;22.90;57.00;;;;;;6158016;23;20041;-85
2022/05/09 12:24:15;;;;;;;8.13;2.60;;;22.90;57.50;;;;;;6158672;23;20293;-85
2022/05/09 12:26:44;;;;;;;10.32;2.97;;;23.00;57.00;;;;;;6158933;23;20084;-85
2022/05/09 12:29:16;;;;;;;6.80;2.53;;;23.10;56.00;;;;;;6157824;23;20057;-86
2022/05/09 12:31:46;;;;;;;7.25;2.72;;;23.10;56.40;;;;;;6161128;23;20009;-85
2022/05/09 12:34:18;;;;;;;8.30;2.92;;;23.20;57.60;;;;;;6159769;23;20328;-85
2022/05/09 12:36:46;;;;;;;7.70;2.50;;;23.20;57.60;;;;;;6159817;23;20002;-85
2022/05/09 12:39:16;;;;;;;7.43;2.70;;;23.30;58.40;;;;;;6160530;23;20451;-85
2022/05/09 12:41:53;;;;;;;7.10;3.27;;;23.40;58.70;;;;;;6158218;23;20033;-85
2022/05/09 12:44:21;;;;;;;5.75;1.95;;;23.50;57.60;;;;;;6158857;23;20248;-85
2022/05/09 12:46:54;;;;;;;7.25;2.40;;;23.50;57.00;;;;;;6161017;23;20028;-85
2022/05/09 12:49:24;;;;;;;7.85;2.83;;;23.60;57.30;;;;;;6157644;23;20048;-85
2022/05/09 12:51:55;;;;;;;7.32;2.92;;;23.70;57.00;;;;;;6158766;23;20037;-85
2022/05/09 12:54:25;;;;;;;6.53;2.45;;;23.70;56.10;;;;;;6160092;23;20072;-86
2022/05/09 12:56:59;;;;;;;6.10;2.35;;;23.80;56.20;;;;;;6156964;23;20037;-85
2022/05/09 12:59:28;;;;;;;9.70;2.72;;;23.90;56.00;;;;;;6157973;23;20001;-85
2022/05/09 13:02:00;;;;;;;9.48;3.63;;;23.90;55.30;;;;;;6156091;23;20002;-84
2022/05/09 13:04:33;;;;;;;9.57;3.30;;;24.00;54.60;;;;;;6155314;23;20434;-85
2022/05/09 13:07:07;;;;;;;7.10;2.42;;;24.00;53.30;;;;;;6155696;23;19997;-85
2022/05/09 13:09:44;;;;;;;7.20;2.72;;;24.10;54.20;;;;;;6154954;23;20006;-85
2022/05/09 13:12:33;;;;;;;9.30;3.10;;;24.10;54.60;;;;;;6160490;23;20336;-85
2022/05/09 13:15:25;;;;;;;7.95;3.00;;;24.20;54.80;;;;;;6140519;23;20085;-85